createdAt,value
2022-08-26T00:02:12.606Z,100.00
2022-08-26T00:04:40.965Z,100.00
2022-08-26T00:07:10.476Z,100.00
2022-08-26T00:09:40.145Z,100.00
2022-08-26T00:12:12.381Z,100.00
2022-08-26T00:14:41.833Z,100.00
2022-08-26T00:17:10.612Z,100.00
2022-08-26T00:19:39.236Z,100.00
2022-08-26T00:22:08.436Z,100.00
2022-08-26T00:24:37.981Z,100.00
2022-08-26T00:27:06.547Z,100.00
2022-08-26T00:29:35.558Z,100.00
2022-08-26T00:32:06.449Z,100.00
2022-08-26T00:34:35.240Z,100.00
2022-08-26T00:37:03.558Z,100.00
2022-08-26T00:39:31.683Z,100.00
2022-08-26T00:42:01.569Z,100.00
2022-08-26T00:44:30.635Z,100.00
2022-08-26T00:47:03.950Z,100.00
2022-08-26T00:49:38.542Z,100.00
2022-08-26T00:52:09.856Z,100.00
2022-08-26T00:54:46.751Z,100.00
2022-08-26T00:57:19.724Z,100.00
2022-08-26T00:59:51.844Z,100.00
2022-08-26T01:02:21.465Z,100.00
2022-08-26T01:04:55.564Z,100.00
2022-08-26T01:07:27.406Z,100.00
2022-08-26T01:09:56.204Z,100.00
2022-08-26T01:12:29.052Z,100.00
2022-08-26T01:14:57.208Z,100.00
2022-08-26T01:17:26.662Z,100.00
2022-08-26T01:20:03.255Z,100.00
2022-08-26T01:22:40.861Z,100.00
2022-08-26T01:25:09.731Z,100.00
2022-08-26T01:27:37.907Z,100.00
2022-08-26T01:30:07.445Z,100.00
2022-08-26T01:32:36.336Z,100.00
2022-08-26T01:35:08.628Z,100.00
2022-08-26T01:37:40.343Z,100.00
2022-08-26T01:40:15.210Z,100.00
2022-08-26T01:42:46.959Z,100.00
2022-08-26T01:45:20.417Z,100.00
2022-08-26T01:47:57.155Z,100.00
2022-08-26T01:50:30.617Z,100.00
2022-08-26T01:53:02.481Z,100.00
2022-08-26T01:55:34.119Z,100.00
2022-08-26T01:58:06.400Z,100.00
2022-08-26T02:00:36.358Z,100.00
2022-08-26T02:03:18.319Z,100.00
2022-08-26T02:05:48.766Z,100.00
2022-08-26T02:08:24.692Z,100.00
2022-08-26T02:10:55.602Z,100.00
2022-08-26T02:13:27.531Z,100.00
2022-08-26T02:15:56.426Z,100.00
2022-08-26T02:18:25.466Z,100.00
2022-08-26T02:20:55.345Z,100.00
2022-08-26T02:23:24.458Z,100.00
2022-08-26T02:26:00.415Z,100.00
2022-08-26T02:28:32.372Z,100.00
2022-08-26T02:31:02.552Z,100.00
2022-08-26T02:33:31.279Z,100.00
2022-08-26T02:35:59.440Z,100.00
2022-08-26T02:38:27.785Z,100.00
2022-08-26T02:40:57.330Z,100.00
2022-08-26T02:43:31.629Z,100.00
2022-08-26T02:46:02.351Z,100.00
2022-08-26T02:48:31.479Z,100.00
2022-08-26T02:51:01.792Z,100.00
2022-08-26T02:53:31.787Z,100.00
2022-08-26T02:56:01.952Z,100.00
2022-08-26T02:58:31.243Z,100.00
2022-08-26T03:00:59.616Z,100.00
2022-08-26T03:03:30.181Z,100.00
2022-08-26T03:05:58.963Z,100.00
2022-08-26T03:08:27.030Z,100.00
2022-08-26T03:10:55.570Z,100.00
2022-08-26T03:13:25.491Z,100.00
2022-08-26T03:15:53.559Z,100.00
2022-08-26T03:18:21.664Z,100.00
2022-08-26T03:20:49.818Z,100.00
2022-08-26T03:23:18.501Z,100.00
2022-08-26T03:25:50.511Z,100.00
2022-08-26T03:28:19.449Z,100.00
2022-08-26T03:30:49.234Z,100.00
2022-08-26T03:33:17.648Z,100.00
2022-08-26T03:35:50.632Z,100.00
2022-08-26T03:38:19.428Z,100.00
2022-08-26T03:40:47.700Z,100.00
2022-08-26T03:43:17.123Z,100.00
2022-08-26T03:45:45.949Z,100.00
2022-08-26T03:48:15.500Z,100.00
2022-08-26T03:50:43.813Z,100.00
2022-08-26T03:53:13.068Z,100.00
2022-08-26T03:55:43.409Z,100.00
2022-08-26T03:58:12.380Z,100.00
2022-08-26T04:00:40.408Z,100.00
2022-08-26T04:03:09.993Z,100.00
2022-08-26T04:05:40.067Z,100.00
2022-08-26T04:08:08.245Z,100.00
2022-08-26T04:10:39.069Z,100.00
2022-08-26T04:13:07.527Z,100.00
2022-08-26T04:15:35.872Z,100.00
2022-08-26T04:18:04.890Z,100.00
2022-08-26T04:20:33.011Z,100.00
2022-08-26T04:23:02.515Z,100.00
2022-08-26T04:25:30.565Z,100.00
2022-08-26T04:27:58.638Z,100.00
2022-08-26T04:30:26.947Z,100.00
2022-08-26T04:32:55.049Z,100.00
2022-08-26T04:35:26.003Z,100.00
2022-08-26T04:37:55.715Z,100.00
2022-08-26T04:40:27.587Z,100.00
2022-08-26T04:42:56.448Z,100.00
2022-08-26T04:45:25.311Z,100.00
2022-08-26T04:47:56.318Z,100.00
2022-08-26T04:50:26.733Z,100.00
2022-08-26T04:52:55.630Z,100.00
2022-08-26T04:55:38.414Z,100.00
2022-08-26T04:58:10.154Z,100.00
2022-08-26T05:00:39.721Z,100.00
2022-08-26T05:03:10.180Z,100.00
2022-08-26T05:05:41.224Z,100.00
2022-08-26T05:08:11.308Z,100.00
2022-08-26T05:10:46.263Z,100.00
2022-08-26T05:13:15.721Z,100.00
2022-08-26T05:15:45.050Z,100.00
2022-08-26T05:18:14.895Z,100.00
2022-08-26T05:20:45.310Z,100.00
2022-08-26T05:23:16.289Z,100.00
2022-08-26T05:25:48.341Z,100.00
2022-08-26T05:28:18.707Z,100.00
2022-08-26T05:30:47.148Z,100.00
2022-08-26T05:33:16.555Z,100.00
2022-08-26T05:35:46.400Z,100.00
2022-08-26T05:38:17.498Z,100.00
2022-08-26T05:40:52.905Z,100.00
2022-08-26T05:43:21.704Z,100.00
2022-08-26T05:45:51.466Z,100.00
2022-08-26T05:48:22.654Z,100.00
2022-08-26T05:50:53.881Z,100.00
2022-08-26T05:53:24.025Z,100.00
2022-08-26T05:55:56.761Z,100.00
2022-08-26T05:58:27.162Z,100.00
2022-08-26T06:01:01.220Z,100.00
2022-08-26T06:03:31.033Z,100.00
2022-08-26T06:06:00.451Z,100.00
2022-08-26T06:08:28.463Z,100.00
2022-08-26T06:11:02.413Z,100.00
2022-08-26T06:13:32.061Z,100.00
2022-08-26T06:16:03.375Z,100.00
2022-08-26T06:18:36.449Z,100.00
2022-08-26T06:21:14.340Z,100.00
2022-08-26T06:24:00.133Z,100.00
2022-08-26T06:26:30.667Z,100.00
2022-08-26T06:28:59.605Z,100.00
2022-08-26T06:31:30.853Z,100.00
2022-08-26T06:34:01.551Z,100.00
2022-08-26T06:36:32.212Z,100.00
2022-08-26T06:39:03.700Z,100.00
2022-08-26T06:41:33.647Z,100.00
2022-08-26T06:44:02.533Z,100.00
2022-08-26T06:46:32.000Z,100.00
2022-08-26T06:49:00.470Z,100.00
2022-08-26T06:51:32.181Z,100.00
2022-08-26T06:54:03.090Z,100.00
2022-08-26T06:56:36.665Z,100.00
2022-08-26T06:59:07.162Z,100.00
2022-08-26T07:01:38.332Z,100.00
2022-08-26T07:04:12.154Z,100.00
2022-08-26T07:06:43.200Z,100.00
2022-08-26T07:09:13.924Z,100.00
2022-08-26T07:11:44.550Z,100.00
2022-08-26T07:14:13.237Z,100.00
2022-08-26T07:16:41.835Z,100.00
2022-08-26T07:19:10.956Z,100.00
2022-08-26T07:21:40.342Z,100.00
2022-08-26T07:24:11.046Z,100.00
2022-08-26T07:26:42.998Z,100.00
2022-08-26T07:29:12.758Z,100.00
2022-08-26T07:31:42.434Z,100.00
2022-08-26T07:34:11.755Z,100.00
2022-08-26T07:36:39.868Z,100.00
2022-08-26T07:39:08.170Z,100.00
2022-08-26T07:41:36.917Z,100.00
2022-08-26T07:44:06.497Z,96.85
2022-08-26T07:46:38.036Z,76.04
2022-08-26T07:49:06.840Z,66.43
2022-08-26T07:51:35.521Z,60.54
2022-08-26T07:54:05.543Z,60.35
2022-08-26T07:56:35.300Z,59.54
2022-08-26T07:59:13.300Z,56.33
2022-08-26T08:01:44.797Z,54.15
2022-08-26T08:04:14.629Z,50.97
2022-08-26T08:06:44.009Z,50.76
2022-08-26T08:09:12.730Z,51.03
2022-08-26T08:11:41.390Z,50.73
2022-08-26T08:14:11.845Z,48.84
2022-08-26T08:16:42.416Z,49.86
2022-08-26T08:19:16.537Z,49.38
2022-08-26T08:21:45.104Z,49.34
2022-08-26T08:24:13.256Z,48.24
2022-08-26T08:26:41.726Z,48.00
2022-08-26T08:29:09.936Z,47.31
2022-08-26T08:31:57.073Z,45.63
2022-08-26T08:34:29.389Z,45.99
2022-08-26T08:36:58.285Z,44.24
2022-08-26T08:39:26.752Z,44.05
2022-08-26T08:42:16.074Z,44.16
2022-08-26T08:44:52.222Z,43.57
2022-08-26T08:47:30.108Z,43.35
2022-08-26T08:50:07.497Z,42.86
2022-08-26T08:52:37.247Z,43.55
2022-08-26T08:55:11.106Z,43.14
2022-08-26T08:57:54.728Z,42.77
2022-08-26T09:00:39.850Z,43.17
2022-08-26T09:03:18.221Z,42.85
2022-08-26T09:05:51.523Z,43.15
2022-08-26T09:08:27.489Z,43.59
2022-08-26T09:10:59.530Z,43.33
2022-08-26T09:13:29.348Z,43.67
2022-08-26T09:16:07.360Z,43.92
2022-08-26T09:19:14.472Z,43.13
2022-08-26T09:21:44.507Z,43.30
2022-08-26T09:24:13.794Z,43.14
2022-08-26T09:26:48.021Z,43.04
2022-08-26T09:29:24.715Z,42.46
2022-08-26T09:31:53.240Z,42.69
2022-08-26T09:34:24.335Z,41.84
2022-08-26T09:36:56.164Z,42.52
2022-08-26T09:39:37.834Z,42.36
2022-08-26T09:42:12.854Z,41.97
2022-08-26T09:44:57.944Z,42.72
2022-08-26T09:47:30.214Z,42.33
2022-08-26T09:50:09.705Z,42.11
2022-08-26T09:52:40.635Z,42.10
2022-08-26T09:55:14.979Z,41.78
2022-08-26T09:57:50.325Z,42.35
2022-08-26T10:00:31.951Z,41.40
2022-08-26T10:03:03.713Z,41.69
2022-08-26T10:05:39.931Z,41.57
2022-08-26T10:08:23.777Z,41.98
2022-08-26T10:10:56.338Z,41.86
2022-08-26T10:13:26.655Z,41.18
2022-08-26T10:16:01.374Z,41.35
2022-08-26T10:18:33.879Z,41.65
2022-08-26T10:21:08.462Z,41.81
2022-08-26T10:23:42.829Z,41.73
2022-08-26T10:26:17.502Z,40.77
2022-08-26T10:28:51.693Z,40.66
2022-08-26T10:31:30.260Z,39.91
2022-08-26T10:34:06.620Z,39.72
2022-08-26T10:37:14.304Z,39.31
2022-08-26T10:39:48.138Z,39.16
2022-08-26T10:42:23.560Z,39.22
2022-08-26T10:44:58.399Z,39.76
2022-08-26T10:47:36.054Z,40.32
2022-08-26T10:50:05.968Z,39.40
2022-08-26T10:52:48.956Z,39.05
2022-08-26T10:55:25.686Z,38.43
2022-08-26T10:58:00.467Z,37.51
2022-08-26T11:00:57.885Z,37.82
2022-08-26T11:03:34.462Z,37.56
2022-08-26T11:06:23.745Z,38.03
2022-08-26T11:08:53.583Z,37.46
2022-08-26T11:11:57.240Z,37.81
2022-08-26T11:14:41.999Z,38.22
2022-08-26T11:17:56.436Z,38.47
2022-08-26T11:20:36.326Z,38.31
2022-08-26T11:23:41.577Z,38.48
2022-08-26T11:26:37.834Z,37.96
2022-08-26T11:29:13.428Z,36.93
2022-08-26T11:31:57.712Z,37.11
2022-08-26T11:34:58.375Z,37.30
2022-08-26T11:37:34.137Z,37.23
2022-08-26T11:40:04.556Z,37.21
2022-08-26T11:42:37.678Z,35.68
2022-08-26T11:45:23.989Z,35.44
2022-08-26T11:47:54.681Z,35.78
2022-08-26T11:50:26.145Z,34.96
2022-08-26T11:52:57.123Z,35.69
2022-08-26T11:55:25.507Z,34.43
2022-08-26T11:57:56.924Z,34.90
2022-08-26T12:00:27.530Z,34.79
2022-08-26T12:03:08.476Z,34.17
2022-08-26T12:05:44.326Z,35.26
2022-08-26T12:08:16.560Z,34.24
2022-08-26T12:10:45.499Z,34.04
2022-08-26T12:13:23.921Z,33.82
2022-08-26T12:15:56.394Z,32.79
2022-08-26T12:18:29.332Z,34.03
2022-08-26T12:21:01.122Z,34.44
2022-08-26T12:23:40.548Z,34.23
2022-08-26T12:26:11.464Z,34.28
2022-08-26T12:28:47.394Z,34.14
2022-08-26T12:31:23.535Z,34.23
2022-08-26T12:33:54.125Z,34.23
2022-08-26T12:36:27.482Z,33.88
2022-08-26T12:38:58.446Z,34.47
2022-08-26T12:41:57.809Z,34.41
2022-08-26T12:44:54.337Z,33.68
2022-08-26T12:47:32.727Z,34.14
2022-08-26T12:50:19.894Z,33.74
2022-08-26T12:52:58.004Z,34.12
2022-08-26T12:55:36.443Z,34.50
2022-08-26T12:58:24.953Z,34.53
2022-08-26T13:00:55.006Z,33.68
2022-08-26T13:03:43.584Z,32.00
2022-08-26T13:06:16.933Z,31.99
2022-08-26T13:08:45.763Z,31.22
2022-08-26T13:11:20.504Z,32.05
2022-08-26T13:13:51.995Z,32.27
2022-08-26T13:16:23.254Z,32.14
2022-08-26T13:18:53.289Z,32.06
2022-08-26T13:21:27.752Z,31.58
2022-08-26T13:24:03.967Z,32.10
2022-08-26T13:26:32.121Z,31.08
2022-08-26T13:29:01.847Z,31.61
2022-08-26T13:31:32.657Z,31.75
2022-08-26T13:34:02.289Z,32.13
2022-08-26T13:36:31.805Z,32.32
2022-08-26T13:39:00.493Z,33.32
2022-08-26T13:41:29.296Z,34.38
2022-08-26T13:43:59.472Z,33.58
2022-08-26T13:46:29.118Z,33.51
2022-08-26T13:48:57.701Z,33.00
2022-08-26T13:51:27.609Z,32.56
2022-08-26T13:53:58.283Z,33.55
2022-08-26T13:56:29.383Z,34.19
2022-08-26T13:58:58.039Z,33.51
2022-08-26T14:01:26.458Z,33.49
2022-08-26T14:03:54.625Z,33.07
2022-08-26T14:06:26.115Z,32.73
2022-08-26T14:08:54.645Z,33.16
2022-08-26T14:11:24.968Z,33.39
2022-08-26T14:13:53.118Z,33.34
2022-08-26T14:16:25.394Z,33.09
2022-08-26T14:18:54.601Z,33.77
2022-08-26T14:21:23.209Z,33.54
2022-08-26T14:23:51.487Z,33.44
2022-08-26T14:26:28.684Z,33.27
2022-08-26T14:29:03.813Z,33.32
2022-08-26T14:31:33.448Z,33.72
2022-08-26T14:34:04.145Z,33.13
2022-08-26T14:36:32.992Z,32.60
2022-08-26T14:39:03.757Z,32.91
2022-08-26T14:41:33.253Z,32.81
2022-08-26T14:44:05.479Z,32.14
2022-08-26T14:46:41.154Z,32.45
2022-08-26T14:49:10.728Z,32.26
2022-08-26T14:51:39.197Z,32.10
2022-08-26T14:54:13.589Z,32.25
2022-08-26T14:56:45.863Z,32.24
2022-08-26T14:59:18.561Z,32.04
2022-08-26T15:01:46.827Z,31.85
2022-08-26T15:04:15.827Z,32.41
2022-08-26T15:06:44.180Z,32.33
2022-08-26T15:09:12.331Z,32.69
2022-08-26T15:11:40.841Z,33.18
2022-08-26T15:14:19.066Z,33.27
2022-08-26T15:16:50.911Z,33.49
2022-08-26T15:19:19.946Z,33.80
2022-08-26T15:21:48.539Z,33.57
2022-08-26T15:24:23.128Z,34.01
2022-08-26T15:26:51.888Z,34.81
2022-08-26T15:29:20.125Z,33.96
2022-08-26T15:31:49.648Z,34.50
2022-08-26T15:34:18.261Z,34.11
2022-08-26T15:36:48.055Z,34.55
2022-08-26T15:39:17.681Z,34.43
2022-08-26T15:41:46.330Z,34.92
2022-08-26T15:44:17.727Z,34.48
2022-08-26T15:46:48.210Z,34.41
2022-08-26T15:49:18.696Z,35.10
2022-08-26T15:51:50.185Z,35.46
2022-08-26T15:54:21.150Z,35.97
2022-08-26T15:56:52.087Z,36.23
2022-08-26T15:59:22.068Z,36.76
2022-08-26T16:01:51.204Z,36.88
2022-08-26T16:04:20.951Z,36.78
2022-08-26T16:06:50.387Z,36.80
2022-08-26T16:09:19.029Z,37.13
2022-08-26T16:11:47.206Z,37.49
2022-08-26T16:14:15.399Z,37.84
2022-08-26T16:16:43.521Z,38.20
2022-08-26T16:19:12.424Z,38.68
2022-08-26T16:21:42.493Z,39.26
2022-08-26T16:24:10.930Z,39.66
2022-08-26T16:26:40.921Z,39.77
2022-08-26T16:29:11.494Z,39.78
2022-08-26T16:31:39.726Z,40.07
2022-08-26T16:34:08.853Z,39.72
2022-08-26T16:36:38.102Z,39.95
2022-08-26T16:39:08.885Z,39.73
2022-08-26T16:41:37.141Z,39.60
2022-08-26T16:44:06.216Z,39.45
2022-08-26T16:46:36.262Z,39.68
2022-08-26T16:49:04.702Z,39.96
2022-08-26T16:51:38.086Z,40.06
2022-08-26T16:54:08.953Z,39.92
2022-08-26T16:56:38.179Z,40.42
2022-08-26T16:59:09.446Z,40.36
2022-08-26T17:01:37.566Z,40.46
2022-08-26T17:04:06.040Z,40.80
2022-08-26T17:06:34.198Z,40.92
2022-08-26T17:09:02.362Z,41.17
2022-08-26T17:11:32.060Z,41.40
2022-08-26T17:14:00.361Z,41.53
2022-08-26T17:16:28.719Z,42.21
2022-08-26T17:18:57.818Z,42.15
2022-08-26T17:21:27.034Z,42.31
2022-08-26T17:23:55.927Z,42.54
2022-08-26T17:26:24.060Z,43.20
2022-08-26T17:28:53.692Z,43.32
2022-08-26T17:31:23.358Z,43.54
2022-08-26T17:33:53.354Z,44.03
2022-08-26T17:36:27.893Z,44.17
2022-08-26T17:38:57.900Z,44.43
2022-08-26T17:41:27.460Z,45.04
2022-08-26T17:43:57.094Z,44.62
2022-08-26T17:46:25.353Z,45.13
2022-08-26T17:48:53.720Z,45.06
2022-08-26T17:51:22.953Z,44.87
2022-08-26T17:53:51.624Z,45.01
2022-08-26T17:56:23.916Z,45.57
2022-08-26T17:58:52.882Z,45.92
2022-08-26T18:01:23.599Z,46.01
2022-08-26T18:03:52.250Z,46.73
2022-08-26T18:06:23.522Z,47.52
2022-08-26T18:08:53.352Z,47.51
2022-08-26T18:11:23.004Z,47.63
2022-08-26T18:13:51.575Z,48.16
2022-08-26T18:16:20.564Z,48.35
2022-08-26T18:18:53.285Z,48.38
2022-08-26T18:21:23.489Z,48.67
2022-08-26T18:23:52.882Z,48.77
2022-08-26T18:26:24.033Z,49.83
2022-08-26T18:28:52.847Z,50.15
2022-08-26T18:31:21.268Z,50.57
2022-08-26T18:33:51.276Z,50.98
2022-08-26T18:36:22.720Z,50.87
2022-08-26T18:38:52.080Z,51.48
2022-08-26T18:41:21.892Z,51.63
2022-08-26T18:43:50.779Z,52.04
2022-08-26T18:46:20.349Z,52.65
2022-08-26T18:48:51.164Z,52.64
2022-08-26T18:51:21.893Z,53.45
2022-08-26T18:53:50.110Z,52.97
2022-08-26T18:56:18.782Z,53.26
2022-08-26T18:58:47.633Z,54.72
2022-08-26T19:01:16.920Z,55.14
2022-08-26T19:03:45.228Z,55.53
2022-08-26T19:06:17.406Z,55.93
2022-08-26T19:08:46.606Z,57.26
2022-08-26T19:11:31.672Z,56.33
2022-08-26T19:14:01.163Z,56.14
2022-08-26T19:16:30.744Z,56.63
2022-08-26T19:19:00.665Z,57.03
2022-08-26T19:21:30.737Z,57.12
2022-08-26T19:24:01.186Z,56.94
2022-08-26T19:26:30.191Z,56.96
2022-08-26T19:28:59.159Z,56.97
2022-08-26T19:31:28.230Z,56.60
2022-08-26T19:33:57.998Z,56.60
2022-08-26T19:36:28.209Z,56.78
2022-08-26T19:38:58.152Z,56.83
2022-08-26T19:41:36.591Z,57.59
2022-08-26T19:44:08.049Z,57.49
2022-08-26T19:49:10.046Z,58.72
2022-08-26T19:51:38.320Z,58.92
2022-08-26T19:54:07.930Z,59.46
2022-08-26T19:56:36.552Z,59.41
2022-08-26T19:59:04.841Z,59.87
2022-08-26T20:01:32.994Z,59.77
2022-08-26T20:04:01.208Z,58.66
2022-08-26T20:06:29.375Z,59.67
2022-08-26T20:08:57.628Z,60.13
2022-08-26T20:11:27.164Z,61.55
2022-08-26T20:13:55.342Z,62.61
2022-08-26T20:16:23.723Z,62.28
2022-08-26T20:19:09.163Z,61.85
2022-08-26T20:21:39.782Z,61.60
2022-08-26T20:24:11.345Z,62.00
2022-08-26T20:26:42.954Z,60.92
2022-08-26T20:29:13.101Z,62.33
2022-08-26T20:31:42.330Z,63.27
2022-08-26T20:34:10.514Z,62.61
2022-08-26T20:36:40.424Z,63.40
2022-08-26T20:39:10.490Z,64.59
2022-08-26T20:41:40.276Z,63.17
2022-08-26T20:44:09.410Z,64.03
2022-08-26T20:46:38.494Z,63.78
2022-08-26T20:49:07.503Z,64.11
2022-08-26T20:51:37.367Z,63.90
2022-08-26T20:54:06.389Z,62.94
2022-08-26T20:56:34.925Z,62.96
2022-08-26T20:59:06.833Z,61.79
2022-08-26T21:01:36.728Z,62.57
2022-08-26T21:04:12.321Z,62.39
2022-08-26T21:06:40.589Z,63.27
2022-08-26T21:09:15.157Z,63.68
2022-08-26T21:11:45.828Z,64.83
2022-08-26T21:14:17.253Z,64.45
2022-08-26T21:16:46.608Z,63.74
2022-08-26T21:19:17.574Z,63.69
2022-08-26T21:21:46.153Z,63.05
2022-08-26T21:24:14.685Z,64.71
2022-08-26T21:26:42.880Z,64.45
2022-08-26T21:29:11.132Z,64.34
2022-08-26T21:31:45.789Z,64.72
2022-08-26T21:34:15.676Z,65.59
2022-08-26T21:36:43.849Z,64.22
2022-08-26T21:39:12.477Z,63.88
2022-08-26T21:41:41.309Z,65.07
2022-08-26T21:44:10.366Z,65.49
2022-08-26T21:46:38.423Z,66.29
2022-08-26T21:49:09.779Z,67.63
2022-08-26T21:51:40.618Z,68.33
2022-08-26T21:54:11.329Z,68.73
2022-08-26T21:56:41.447Z,67.97
2022-08-26T21:59:10.128Z,69.40
2022-08-26T22:01:38.575Z,71.18
2022-08-26T22:04:09.886Z,71.22
2022-08-26T22:06:43.331Z,71.65
2022-08-26T22:09:11.968Z,71.49
2022-08-26T22:11:40.319Z,73.46
2022-08-26T22:14:08.400Z,73.30
2022-08-26T22:16:36.536Z,71.88
2022-08-26T22:19:04.852Z,73.05
2022-08-26T22:21:35.750Z,74.88
2022-08-26T22:24:04.655Z,74.93
2022-08-26T22:26:34.586Z,74.69
2022-08-26T22:29:03.554Z,76.66
2022-08-26T22:31:37.598Z,75.57
2022-08-26T22:34:07.882Z,75.38
2022-08-26T22:36:43.291Z,75.66
2022-08-26T22:39:13.423Z,77.18
2022-08-26T22:41:42.072Z,79.12
2022-08-26T22:44:10.505Z,78.86
2022-08-26T22:46:38.955Z,79.19
2022-08-26T22:49:08.729Z,79.35
2022-08-26T22:51:38.400Z,80.26
2022-08-26T22:54:07.658Z,79.82
2022-08-26T22:56:36.846Z,80.82
2022-08-26T22:59:06.727Z,82.00
2022-08-26T23:01:37.213Z,82.76
2022-08-26T23:04:07.335Z,84.38
2022-08-26T23:06:38.438Z,83.17
2022-08-26T23:09:07.338Z,83.86
2022-08-26T23:11:35.530Z,84.02
2022-08-26T23:14:06.279Z,82.79
2022-08-26T23:16:39.155Z,83.35
2022-08-26T23:19:08.109Z,85.25
2022-08-26T23:21:36.753Z,82.65
2022-08-26T23:24:07.205Z,82.17
2022-08-26T23:26:36.620Z,83.92
2022-08-26T23:29:05.670Z,82.06
2022-08-26T23:31:34.219Z,83.32
2022-08-26T23:34:19.704Z,84.66
2022-08-26T23:36:48.843Z,86.89
2022-08-26T23:39:18.349Z,87.37
2022-08-26T23:41:47.084Z,88.65
2022-08-26T23:44:15.772Z,88.66
2022-08-26T23:46:43.958Z,92.36
2022-08-26T23:49:12.064Z,91.84
2022-08-26T23:51:57.332Z,92.58
2022-08-26T23:54:26.832Z,92.96
2022-08-26T23:56:54.973Z,94.06
2022-08-26T23:59:23.085Z,94.81
